sensor_id;sensor_type;location;lat;lon;timestamp;noise_LAeq;noise_LA_min;noise_LA_max;noise_LA01;noise_LA95
52872;Laerm;40124;52.198;9.902;2023-02-03T00:05:11;41.39;38.52;49.98;;
52872;Laerm;40124;52.198;9.902;2023-02-03T00:07:36;40.93;38.52;44.15;;
52872;Laerm;40124;52.198;9.902;2023-02-03T00:10:03;41.82;38.21;50.92;;
52872;Laerm;40124;52.198;9.902;2023-02-03T00:12:28;62.01;39.08;81.36;;
52872;Laerm;40124;52.198;9.902;2023-02-03T00:14:54;42.28;39.34;49.29;;
52872;Laerm;40124;52.198;9.902;2023-02-03T00:20:24;41.08;38.47;44.62;;
52872;Laerm;40124;52.198;9.902;2023-02-03T00:23:35;41.23;37.88;47.14;;
52872;Laerm;40124;52.198;9.902;2023-02-03T00:38:07;59.00;38.67;79.55;;
52872;Laerm;40124;52.198;9.902;2023-02-03T00:56:01;43.70;39.08;72.87;;
52872;Laerm;40124;52.198;9.902;2023-02-03T01:04:47;57.51;39.58;78.72;;
52872;Laerm;40124;52.198;9.902;2023-02-03T01:07:13;43.15;40.03;46.69;;
52872;Laerm;40124;52.198;9.902;2023-02-03T01:09:38;42.84;40.08;50.92;;
52872;Laerm;40124;52.198;9.902;2023-02-03T01:12:06;42.53;39.58;46.02;;
52872;Laerm;40124;52.198;9.902;2023-02-03T01:14:35;42.55;39.70;51.08;;
52872;Laerm;40124;52.198;9.902;2023-02-03T01:19:57;43.30;38.95;52.98;;
52872;Laerm;40124;52.198;9.902;2023-02-03T01:22:23;42.76;40.03;48.84;;
52872;Laerm;40124;52.198;9.902;2023-02-03T01:25:09;57.29;40.33;78.27;;
52872;Laerm;40124;52.198;9.902;2023-02-03T01:36:51;42.19;39.08;45.83;;
52872;Laerm;40124;52.198;9.902;2023-02-03T01:39:26;43.35;39.08;52.56;;
52872;Laerm;40124;52.198;9.902;2023-02-03T01:41:54;60.08;39.46;80.86;;
52872;Laerm;40124;52.198;9.902;2023-02-03T01:44:40;59.82;40.89;79.30;;
52872;Laerm;40124;52.198;9.902;2023-02-03T01:47:13;42.23;39.08;45.97;;
52872;Laerm;40124;52.198;9.902;2023-02-03T01:49:40;43.02;39.46;51.13;;
52872;Laerm;40124;52.198;9.902;2023-02-03T01:52:07;42.93;39.70;49.69;;
52872;Laerm;40124;52.198;9.902;2023-02-03T01:54:34;43.04;39.92;51.56;;
52872;Laerm;40124;52.198;9.902;2023-02-03T01:57:04;62.10;40.80;82.43;;
52872;Laerm;40124;52.198;9.902;2023-02-03T01:59:30;43.21;40.89;46.55;;
52872;Laerm;40124;52.198;9.902;2023-02-03T02:01:55;43.33;40.33;50.29;;
52872;Laerm;40124;52.198;9.902;2023-02-03T02:10:49;43.54;40.33;52.21;;
52872;Laerm;40124;52.198;9.902;2023-02-03T02:20:13;59.03;41.82;81.49;;
52872;Laerm;40124;52.198;9.902;2023-02-03T02:23:00;53.09;41.89;71.53;;
52872;Laerm;40124;52.198;9.902;2023-02-03T02:33:54;43.75;41.30;46.66;;
52872;Laerm;40124;52.198;9.902;2023-02-03T02:39:22;57.11;40.98;78.82;;
52872;Laerm;40124;52.198;9.902;2023-02-03T02:47:58;62.98;41.30;82.52;;
52872;Laerm;40124;52.198;9.902;2023-02-03T02:50:27;66.62;40.80;85.76;;
52872;Laerm;40124;52.198;9.902;2023-02-03T02:52:58;56.65;40.23;76.50;;
52872;Laerm;40124;52.198;9.902;2023-02-03T03:04:59;43.63;41.06;51.58;;
52872;Laerm;40124;52.198;9.902;2023-02-03T03:11:03;48.54;41.22;67.16;;
52872;Laerm;40124;52.198;9.902;2023-02-03T03:13:23;59.78;41.82;80.69;;
52872;Laerm;40124;52.198;9.902;2023-02-03T03:15:50;59.10;41.82;79.45;;
52872;Laerm;40124;52.198;9.902;2023-02-03T03:21:21;58.40;43.63;77.17;;
52872;Laerm;40124;52.198;9.902;2023-02-03T03:23:49;55.89;43.14;78.02;;
52872;Laerm;40124;52.198;9.902;2023-02-03T03:32:40;67.42;42.93;90.38;;
52872;Laerm;40124;52.198;9.902;2023-02-03T03:35:16;69.14;42.47;89.57;;
52872;Laerm;40124;52.198;9.902;2023-02-03T03:37:53;68.07;43.39;87.14;;
52872;Laerm;40124;52.198;9.902;2023-02-03T03:41:03;59.33;42.41;79.74;;
52872;Laerm;40124;52.198;9.902;2023-02-03T03:43:43;55.95;42.53;76.64;;
52872;Laerm;40124;52.198;9.902;2023-02-03T03:46:27;67.58;42.03;85.33;;
52872;Laerm;40124;52.198;9.902;2023-02-03T03:49:14;46.98;42.09;58.78;;
52872;Laerm;40124;52.198;9.902;2023-02-03T03:52:02;68.36;41.38;88.81;;
52872;Laerm;40124;52.198;9.902;2023-02-03T03:54:34;60.86;41.89;79.03;;
52872;Laerm;40124;52.198;9.902;2023-02-03T04:00:05;62.13;42.59;77.52;;
52872;Laerm;40124;52.198;9.902;2023-02-03T04:02:38;68.95;42.29;88.77;;
52872;Laerm;40124;52.198;9.902;2023-02-03T04:10:55;67.32;42.98;81.83;;
52872;Laerm;40124;52.198;9.902;2023-02-03T04:13:20;67.96;43.86;83.52;;
52872;Laerm;40124;52.198;9.902;2023-02-03T04:15:46;66.56;43.29;81.81;;
52872;Laerm;40124;52.198;9.902;2023-02-03T04:24:36;69.85;43.94;81.75;;
52872;Laerm;40124;52.198;9.902;2023-02-03T04:27:09;72.39;42.79;88.66;;
52872;Laerm;40124;52.198;9.902;2023-02-03T04:29:34;63.76;42.98;80.31;;
52872;Laerm;40124;52.198;9.902;2023-02-03T04:40:40;69.54;43.04;84.41;;
52872;Laerm;40124;52.198;9.902;2023-02-03T04:49:06;67.46;43.04;81.44;;
52872;Laerm;40124;52.198;9.902;2023-02-03T04:51:42;68.18;43.86;81.44;;
52872;Laerm;40124;52.198;9.902;2023-02-03T05:06:10;69.21;45.42;82.64;;
52872;Laerm;40124;52.198;9.902;2023-02-03T05:08:38;70.40;41.89;84.25;;
52872;Laerm;40124;52.198;9.902;2023-02-03T05:11:06;70.99;46.63;85.79;;
52872;Laerm;40124;52.198;9.902;2023-02-03T05:19:20;69.54;42.29;83.17;;
52872;Laerm;40124;52.198;9.902;2023-02-03T05:21:46;72.26;48.67;83.74;;
52872;Laerm;40124;52.198;9.902;2023-02-03T05:30:37;71.61;46.33;84.44;;
52872;Laerm;40124;52.198;9.902;2023-02-03T05:33:03;70.50;44.83;82.27;;
52872;Laerm;40124;52.198;9.902;2023-02-03T05:35:30;70.76;48.98;82.10;;
52872;Laerm;40124;52.198;9.902;2023-02-03T05:40:47;72.81;42.88;87.79;;
52872;Laerm;40124;52.198;9.902;2023-02-03T05:43:51;71.14;46.30;87.31;;
52872;Laerm;40124;52.198;9.902;2023-02-03T05:49:10;72.41;48.80;84.28;;
52872;Laerm;40124;52.198;9.902;2023-02-03T05:51:38;70.15;45.04;81.99;;
52872;Laerm;40124;52.198;9.902;2023-02-03T06:06:20;70.64;45.80;80.57;;
52872;Laerm;40124;52.198;9.902;2023-02-03T06:11:27;71.86;49.94;87.18;;
52872;Laerm;40124;52.198;9.902;2023-02-03T06:13:53;71.57;46.30;84.54;;
52872;Laerm;40124;52.198;9.902;2023-02-03T06:16:18;72.94;50.28;84.86;;
52872;Laerm;40124;52.198;9.902;2023-02-03T06:18:43;72.24;44.03;85.13;;
52872;Laerm;40124;52.198;9.902;2023-02-03T06:21:09;73.41;46.55;83.92;;
52872;Laerm;40124;52.198;9.902;2023-02-03T06:23:36;71.29;44.62;86.05;;
52872;Laerm;40124;52.198;9.902;2023-02-03T06:26:02;72.30;52.03;83.18;;
52872;Laerm;40124;52.198;9.902;2023-02-03T06:28:30;70.45;46.30;81.65;;
52872;Laerm;40124;52.198;9.902;2023-02-03T06:30:57;73.13;48.46;82.98;;
52872;Laerm;40124;52.198;9.902;2023-02-03T06:33:22;73.32;53.44;88.27;;
52872;Laerm;40124;52.198;9.902;2023-02-03T06:35:48;71.86;47.90;88.93;;
52872;Laerm;40124;52.198;9.902;2023-02-03T06:38:13;73.59;53.56;87.26;;
52872;Laerm;40124;52.198;9.902;2023-02-03T06:40:38;70.36;46.71;79.78;;
52872;Laerm;40124;52.198;9.902;2023-02-03T06:43:04;72.06;53.31;81.53;;
52872;Laerm;40124;52.198;9.902;2023-02-03T06:45:29;73.49;53.58;83.62;;
52872;Laerm;40124;52.198;9.902;2023-02-03T06:50:30;71.06;51.13;82.76;;
52872;Laerm;40124;52.198;9.902;2023-02-03T06:52:55;73.11;50.36;86.79;;
52872;Laerm;40124;52.198;9.902;2023-02-03T06:55:21;71.88;50.00;83.84;;
52872;Laerm;40124;52.198;9.902;2023-02-03T06:57:47;72.35;48.26;85.25;;
52872;Laerm;40124;52.198;9.902;2023-02-03T07:00:13;72.25;49.90;83.78;;
52872;Laerm;40124;52.198;9.902;2023-02-03T07:02:38;70.69;44.31;85.95;;
52872;Laerm;40124;52.198;9.902;2023-02-03T07:05:07;71.03;51.22;80.29;;
52872;Laerm;40124;52.198;9.902;2023-02-03T07:07:32;70.77;47.50;82.27;;
52872;Laerm;40124;52.198;9.902;2023-02-03T07:09:58;70.46;46.71;81.03;;
52872;Laerm;40124;52.198;9.902;2023-02-03T07:15:17;72.20;46.93;87.47;;
52872;Laerm;40124;52.198;9.902;2023-02-03T07:17:42;70.62;47.28;87.33;;
52872;Laerm;40124;52.198;9.902;2023-02-03T07:20:18;69.62;45.83;84.00;;
52872;Laerm;40124;52.198;9.902;2023-02-03T07:22:44;69.02;44.54;80.18;;
52872;Laerm;40124;52.198;9.902;2023-02-03T07:25:12;69.50;50.53;79.28;;
52872;Laerm;40124;52.198;9.902;2023-02-03T07:34:04;68.08;45.60;82.25;;
52872;Laerm;40124;52.198;9.902;2023-02-03T07:36:30;67.05;44.62;82.89;;
52872;Laerm;40124;52.198;9.902;2023-02-03T07:39:03;69.00;45.01;85.22;;
52872;Laerm;40124;52.198;9.902;2023-02-03T07:41:34;71.06;51.33;83.29;;
52872;Laerm;40124;52.198;9.902;2023-02-03T07:53:41;73.84;49.58;92.08;;
52872;Laerm;40124;52.198;9.902;2023-02-03T07:56:06;70.82;45.33;87.13;;
52872;Laerm;40124;52.198;9.902;2023-02-03T07:58:32;70.28;45.17;83.41;;
52872;Laerm;40124;52.198;9.902;2023-02-03T08:00:57;69.91;46.55;81.67;;
52872;Laerm;40124;52.198;9.902;2023-02-03T08:03:23;67.98;46.15;80.79;;
52872;Laerm;40124;52.198;9.902;2023-02-03T08:05:49;69.97;50.39;84.14;;
52872;Laerm;40124;52.198;9.902;2023-02-03T08:08:17;67.31;44.47;79.26;;
52872;Laerm;40124;52.198;9.902;2023-02-03T08:10:42;67.49;45.36;80.24;;
52872;Laerm;40124;52.198;9.902;2023-02-03T08:13:15;69.22;46.50;84.94;;
52872;Laerm;40124;52.198;9.902;2023-02-03T08:15:41;67.23;48.70;79.66;;
52872;Laerm;40124;52.198;9.902;2023-02-03T08:18:08;70.66;45.94;86.66;;
52872;Laerm;40124;52.198;9.902;2023-02-03T08:20:36;69.61;46.30;85.92;;
52872;Laerm;40124;52.198;9.902;2023-02-03T08:23:01;70.18;50.58;90.26;;
52872;Laerm;40124;52.198;9.902;2023-02-03T08:25:27;68.73;45.75;82.94;;
52872;Laerm;40124;52.198;9.902;2023-02-03T08:33:39;68.88;49.54;83.79;;
52872;Laerm;40124;52.198;9.902;2023-02-03T08:36:05;66.84;48.81;77.80;;
52872;Laerm;40124;52.198;9.902;2023-02-03T08:38:30;68.45;48.29;81.16;;
52872;Laerm;40124;52.198;9.902;2023-02-03T08:40:56;70.64;45.63;84.96;;
52872;Laerm;40124;52.198;9.902;2023-02-03T08:43:24;68.42;44.82;78.46;;
52872;Laerm;40124;52.198;9.902;2023-02-03T08:46:14;66.54;47.02;80.31;;
52872;Laerm;40124;52.198;9.902;2023-02-03T08:57:57;68.26;47.61;83.51;;
52872;Laerm;40124;52.198;9.902;2023-02-03T09:00:30;69.80;52.45;86.28;;
52872;Laerm;40124;52.198;9.902;2023-02-03T09:02:55;70.99;52.33;85.96;;
52872;Laerm;40124;52.198;9.902;2023-02-03T09:05:29;71.40;53.17;88.38;;
52872;Laerm;40124;52.198;9.902;2023-02-03T09:08:16;70.45;45.51;83.95;;
52872;Laerm;40124;52.198;9.902;2023-02-03T09:10:40;71.91;46.33;88.96;;
52872;Laerm;40124;52.198;9.902;2023-02-03T09:13:54;69.13;50.20;81.31;;
52872;Laerm;40124;52.198;9.902;2023-02-03T09:16:10;69.75;49.12;81.06;;
52872;Laerm;40124;52.198;9.902;2023-02-03T09:18:36;68.60;46.10;81.35;;
52872;Laerm;40124;52.198;9.902;2023-02-03T09:21:05;71.14;45.94;85.05;;
52872;Laerm;40124;52.198;9.902;2023-02-03T09:23:31;68.24;48.57;84.10;;
52872;Laerm;40124;52.198;9.902;2023-02-03T09:26:03;70.75;49.34;83.90;;
52872;Laerm;40124;52.198;9.902;2023-02-03T09:28:36;70.30;45.91;85.96;;
52872;Laerm;40124;52.198;9.902;2023-02-03T09:31:02;66.47;45.96;81.27;;
52872;Laerm;40124;52.198;9.902;2023-02-03T09:33:28;70.12;45.51;85.36;;
52872;Laerm;40124;52.198;9.902;2023-02-03T09:36:01;70.06;46.80;83.75;;
52872;Laerm;40124;52.198;9.902;2023-02-03T09:38:27;68.51;46.07;81.38;;
52872;Laerm;40124;52.198;9.902;2023-02-03T09:40:53;69.91;52.74;82.72;;
52872;Laerm;40124;52.198;9.902;2023-02-03T09:43:27;67.36;46.33;81.58;;
52872;Laerm;40124;52.198;9.902;2023-02-03T09:45:59;69.41;52.13;81.17;;
52872;Laerm;40124;52.198;9.902;2023-02-03T09:57:48;67.80;50.61;79.76;;
52872;Laerm;40124;52.198;9.902;2023-02-03T10:00:28;68.23;44.83;79.41;;
52872;Laerm;40124;52.198;9.902;2023-02-03T10:03:05;69.39;47.08;81.58;;
52872;Laerm;40124;52.198;9.902;2023-02-03T10:25:53;72.37;53.65;85.02;;
52872;Laerm;40124;52.198;9.902;2023-02-03T10:28:30;70.39;48.66;85.70;;
52872;Laerm;40124;52.198;9.902;2023-02-03T10:30:59;68.68;48.45;84.75;;
52872;Laerm;40124;52.198;9.902;2023-02-03T10:33:28;72.88;51.39;91.95;;
52872;Laerm;40124;52.198;9.902;2023-02-03T10:35:58;69.36;50.68;80.42;;
52872;Laerm;40124;52.198;9.902;2023-02-03T10:38:34;71.78;47.83;85.62;;
52872;Laerm;40124;52.198;9.902;2023-02-03T10:44:18;66.93;50.38;81.41;;
52872;Laerm;40124;52.198;9.902;2023-02-03T10:46:46;70.09;48.96;84.72;;
52872;Laerm;40124;52.198;9.902;2023-02-03T10:49:20;71.68;51.55;86.02;;
52872;Laerm;40124;52.198;9.902;2023-02-03T10:51:50;71.77;51.28;85.46;;
52872;Laerm;40124;52.198;9.902;2023-02-03T10:54:31;71.65;53.70;87.26;;
52872;Laerm;40124;52.198;9.902;2023-02-03T10:57:00;70.26;52.31;80.76;;
52872;Laerm;40124;52.198;9.902;2023-02-03T10:59:28;72.53;51.73;86.05;;
52872;Laerm;40124;52.198;9.902;2023-02-03T11:05:07;73.17;53.75;87.06;;
52872;Laerm;40124;52.198;9.902;2023-02-03T11:07:32;73.14;53.77;91.11;;
52872;Laerm;40124;52.198;9.902;2023-02-03T11:10:00;72.66;52.54;85.23;;
52872;Laerm;40124;52.198;9.902;2023-02-03T11:12:36;71.98;54.14;84.59;;
52872;Laerm;40124;52.198;9.902;2023-02-03T11:20:24;70.83;50.98;80.82;;
52872;Laerm;40124;52.198;9.902;2023-02-03T11:22:52;72.50;52.96;87.25;;
52872;Laerm;40124;52.198;9.902;2023-02-03T11:25:26;73.14;53.63;85.91;;
52872;Laerm;40124;52.198;9.902;2023-02-03T11:28:02;69.75;48.83;79.87;;
52872;Laerm;40124;52.198;9.902;2023-02-03T11:30:29;72.96;47.84;85.40;;
52872;Laerm;40124;52.198;9.902;2023-02-03T11:32:55;70.77;52.59;86.47;;
52872;Laerm;40124;52.198;9.902;2023-02-03T11:37:54;72.72;50.06;89.05;;
52872;Laerm;40124;52.198;9.902;2023-02-03T11:45:29;72.58;51.55;85.23;;
52872;Laerm;40124;52.198;9.902;2023-02-03T11:50:46;72.64;52.71;86.26;;
52872;Laerm;40124;52.198;9.902;2023-02-03T12:01:14;72.30;54.32;84.38;;
52872;Laerm;40124;52.198;9.902;2023-02-03T12:18:35;70.78;54.22;80.43;;
52872;Laerm;40124;52.198;9.902;2023-02-03T12:21:08;74.98;56.64;92.86;;
52872;Laerm;40124;52.198;9.902;2023-02-03T12:23:44;72.59;53.77;83.75;;
52872;Laerm;40124;52.198;9.902;2023-02-03T12:26:19;71.17;54.02;80.80;;
52872;Laerm;40124;52.198;9.902;2023-02-03T12:29:05;70.77;48.57;79.95;;
52872;Laerm;40124;52.198;9.902;2023-02-03T12:31:38;70.93;52.04;81.03;;
52872;Laerm;40124;52.198;9.902;2023-02-03T12:37:16;72.50;50.03;86.97;;
52872;Laerm;40124;52.198;9.902;2023-02-03T12:40:05;71.26;51.51;82.07;;
52872;Laerm;40124;52.198;9.902;2023-02-03T12:42:30;72.19;53.21;82.66;;
52872;Laerm;40124;52.198;9.902;2023-02-03T13:03:19;69.37;50.61;81.18;;
52872;Laerm;40124;52.198;9.902;2023-02-03T13:09:02;70.75;49.35;80.47;;
52872;Laerm;40124;52.198;9.902;2023-02-03T13:11:37;72.61;50.63;86.00;;
52872;Laerm;40124;52.198;9.902;2023-02-03T13:14:09;71.55;53.69;80.80;;
52872;Laerm;40124;52.198;9.902;2023-02-03T13:16:38;72.12;50.23;85.49;;
52872;Laerm;40124;52.198;9.902;2023-02-03T13:19:05;74.05;53.53;88.49;;
52872;Laerm;40124;52.198;9.902;2023-02-03T13:21:41;72.56;51.24;84.81;;
52872;Laerm;40124;52.198;9.902;2023-02-03T13:24:06;72.01;52.84;84.81;;
52872;Laerm;40124;52.198;9.902;2023-02-03T13:29:29;72.63;55.18;83.73;;
52872;Laerm;40124;52.198;9.902;2023-02-03T13:32:25;72.20;52.57;86.06;;
52872;Laerm;40124;52.198;9.902;2023-02-03T13:37:26;73.51;55.46;84.57;;
52872;Laerm;40124;52.198;9.902;2023-02-03T13:40:11;70.14;49.49;80.33;;
52872;Laerm;40124;52.198;9.902;2023-02-03T13:42:52;74.18;51.28;93.43;;
52872;Laerm;40124;52.198;9.902;2023-02-03T13:48:31;71.50;48.85;83.75;;
52872;Laerm;40124;52.198;9.902;2023-02-03T13:53:58;72.29;51.04;82.44;;
52872;Laerm;40124;52.198;9.902;2023-02-03T14:07:55;74.10;54.63;85.80;;
52872;Laerm;40124;52.198;9.902;2023-02-03T14:13:19;72.48;51.73;84.29;;
52872;Laerm;40124;52.198;9.902;2023-02-03T14:15:44;72.09;48.16;88.20;;
52872;Laerm;40124;52.198;9.902;2023-02-03T14:21:57;68.75;45.86;80.25;;
52872;Laerm;40124;52.198;9.902;2023-02-03T14:24:22;71.52;50.29;83.52;;
52872;Laerm;40124;52.198;9.902;2023-02-03T14:26:49;72.92;52.84;85.51;;
52872;Laerm;40124;52.198;9.902;2023-02-03T14:29:30;71.25;53.26;80.72;;
52872;Laerm;40124;52.198;9.902;2023-02-03T14:32:02;71.56;49.58;81.00;;
52872;Laerm;40124;52.198;9.902;2023-02-03T14:34:38;72.80;49.33;86.96;;
52872;Laerm;40124;52.198;9.902;2023-02-03T14:37:08;71.42;50.82;81.14;;
52872;Laerm;40124;52.198;9.902;2023-02-03T14:44:48;72.56;53.47;81.68;;
52872;Laerm;40124;52.198;9.902;2023-02-03T14:50:14;71.33;50.38;80.95;;
52872;Laerm;40124;52.198;9.902;2023-02-03T14:52:40;71.79;54.17;81.08;;
52872;Laerm;40124;52.198;9.902;2023-02-03T14:55:15;71.31;50.04;80.70;;
52872;Laerm;40124;52.198;9.902;2023-02-03T14:57:56;71.64;52.14;81.24;;
52872;Laerm;40124;52.198;9.902;2023-02-03T15:00:26;71.47;50.62;83.68;;
52872;Laerm;40124;52.198;9.902;2023-02-03T15:06:04;72.03;54.37;80.64;;
52872;Laerm;40124;52.198;9.902;2023-02-03T15:08:49;73.31;54.43;85.76;;
52872;Laerm;40124;52.198;9.902;2023-02-03T15:17:27;70.19;46.55;80.93;;
52872;Laerm;40124;52.198;9.902;2023-02-03T15:31:37;70.05;51.66;81.32;;
52872;Laerm;40124;52.198;9.902;2023-02-03T15:34:08;71.17;50.36;80.31;;
52872;Laerm;40124;52.198;9.902;2023-02-03T15:36:43;70.79;52.49;87.51;;
52872;Laerm;40124;52.198;9.902;2023-02-03T15:48:40;72.52;48.85;88.28;;
52872;Laerm;40124;52.198;9.902;2023-02-03T15:51:13;70.00;53.68;79.37;;
52872;Laerm;40124;52.198;9.902;2023-02-03T15:53:45;71.16;50.35;81.89;;
52872;Laerm;40124;52.198;9.902;2023-02-03T16:11:43;72.15;50.40;82.81;;
52872;Laerm;40124;52.198;9.902;2023-02-03T16:14:21;71.76;49.69;84.40;;
52872;Laerm;40124;52.198;9.902;2023-02-03T16:16:55;71.42;50.96;81.04;;
52872;Laerm;40124;52.198;9.902;2023-02-03T16:19:21;71.40;52.51;79.86;;
52872;Laerm;40124;52.198;9.902;2023-02-03T16:24:31;70.34;47.52;80.61;;
52872;Laerm;40124;52.198;9.902;2023-02-03T16:29:50;70.61;51.43;81.35;;
52872;Laerm;40124;52.198;9.902;2023-02-03T16:32:34;71.38;50.34;81.45;;
52872;Laerm;40124;52.198;9.902;2023-02-03T16:35:17;70.16;52.53;81.00;;
52872;Laerm;40124;52.198;9.902;2023-02-03T16:41:11;71.55;52.45;80.74;;
52872;Laerm;40124;52.198;9.902;2023-02-03T16:44:09;72.71;52.97;89.17;;
52872;Laerm;40124;52.198;9.902;2023-02-03T16:53:02;74.17;50.03;93.62;;
52872;Laerm;40124;52.198;9.902;2023-02-03T16:55:48;67.61;48.73;83.60;;
52872;Laerm;40124;52.198;9.902;2023-02-03T16:58:14;70.52;49.84;80.29;;
52872;Laerm;40124;52.198;9.902;2023-02-03T17:00:40;72.41;49.47;88.16;;
52872;Laerm;40124;52.198;9.902;2023-02-03T17:03:07;71.39;52.15;84.09;;
52872;Laerm;40124;52.198;9.902;2023-02-03T17:05:36;72.69;50.16;87.58;;
52872;Laerm;40124;52.198;9.902;2023-02-03T17:11:07;70.08;48.83;83.03;;
52872;Laerm;40124;52.198;9.902;2023-02-03T17:13:32;70.66;48.57;80.74;;
52872;Laerm;40124;52.198;9.902;2023-02-03T17:15:57;70.90;48.87;80.81;;
52872;Laerm;40124;52.198;9.902;2023-02-03T17:18:23;70.97;46.20;82.07;;
52872;Laerm;40124;52.198;9.902;2023-02-03T17:26:47;69.38;47.00;81.12;;
52872;Laerm;40124;52.198;9.902;2023-02-03T17:29:13;70.95;49.21;82.17;;
52872;Laerm;40124;52.198;9.902;2023-02-03T17:34:22;68.42;48.40;79.79;;
52872;Laerm;40124;52.198;9.902;2023-02-03T17:36:47;70.66;47.44;81.92;;
52872;Laerm;40124;52.198;9.902;2023-02-03T17:48:36;70.22;45.91;84.21;;
52872;Laerm;40124;52.198;9.902;2023-02-03T17:53:56;70.10;47.26;82.11;;
52872;Laerm;40124;52.198;9.902;2023-02-03T17:59:45;69.46;46.87;82.99;;
52872;Laerm;40124;52.198;9.902;2023-02-03T18:02:10;70.06;47.34;81.62;;
52872;Laerm;40124;52.198;9.902;2023-02-03T18:04:36;69.66;46.10;85.99;;
52872;Laerm;40124;52.198;9.902;2023-02-03T18:07:04;71.99;54.21;82.06;;
52872;Laerm;40124;52.198;9.902;2023-02-03T18:09:37;70.01;48.46;81.50;;
52872;Laerm;40124;52.198;9.902;2023-02-03T18:12:02;70.31;47.40;84.28;;
52872;Laerm;40124;52.198;9.902;2023-02-03T18:14:28;69.58;47.91;81.51;;
52872;Laerm;40124;52.198;9.902;2023-02-03T18:16:53;70.27;45.69;80.46;;
52872;Laerm;40124;52.198;9.902;2023-02-03T18:19:19;68.21;48.26;79.67;;
52872;Laerm;40124;52.198;9.902;2023-02-03T18:21:44;69.41;44.31;81.47;;
52872;Laerm;40124;52.198;9.902;2023-02-03T18:24:10;70.19;48.25;80.62;;
52872;Laerm;40124;52.198;9.902;2023-02-03T18:26:36;67.30;44.11;82.11;;
52872;Laerm;40124;52.198;9.902;2023-02-03T18:29:16;70.23;48.08;87.79;;
52872;Laerm;40124;52.198;9.902;2023-02-03T18:31:44;66.04;44.03;79.76;;
52872;Laerm;40124;52.198;9.902;2023-02-03T18:34:13;72.16;51.25;83.96;;
52872;Laerm;40124;52.198;9.902;2023-02-03T18:36:39;70.40;43.90;84.99;;
52872;Laerm;40124;52.198;9.902;2023-02-03T18:39:04;70.44;47.79;83.10;;
52872;Laerm;40124;52.198;9.902;2023-02-03T18:41:29;69.29;44.97;82.48;;
52872;Laerm;40124;52.198;9.902;2023-02-03T18:43:54;66.94;44.03;79.48;;
52872;Laerm;40124;52.198;9.902;2023-02-03T18:46:21;69.91;44.15;81.47;;
52872;Laerm;40124;52.198;9.902;2023-02-03T18:48:47;67.94;43.63;88.73;;
52872;Laerm;40124;52.198;9.902;2023-02-03T18:51:13;67.49;44.31;81.62;;
52872;Laerm;40124;52.198;9.902;2023-02-03T18:53:38;66.62;43.44;79.61;;
52872;Laerm;40124;52.198;9.902;2023-02-03T18:56:07;68.73;45.57;82.94;;
52872;Laerm;40124;52.198;9.902;2023-02-03T18:58:33;67.68;45.36;80.26;;
52872;Laerm;40124;52.198;9.902;2023-02-03T19:00:58;70.52;48.05;85.85;;
52872;Laerm;40124;52.198;9.902;2023-02-03T19:03:24;69.16;45.97;82.74;;
52872;Laerm;40124;52.198;9.902;2023-02-03T19:05:52;69.15;44.94;82.28;;
52872;Laerm;40124;52.198;9.902;2023-02-03T19:08:18;66.74;44.76;81.27;;
52872;Laerm;40124;52.198;9.902;2023-02-03T19:10:43;69.53;44.03;82.85;;
52872;Laerm;40124;52.198;9.902;2023-02-03T19:13:09;68.20;44.19;80.65;;
52872;Laerm;40124;52.198;9.902;2023-02-03T19:15:34;70.03;44.23;82.35;;
52872;Laerm;40124;52.198;9.902;2023-02-03T19:18:00;69.26;47.06;83.33;;
52872;Laerm;40124;52.198;9.902;2023-02-03T19:20:25;69.57;46.07;83.33;;
52872;Laerm;40124;52.198;9.902;2023-02-03T19:22:50;67.81;43.86;80.42;;
52872;Laerm;40124;52.198;9.902;2023-02-03T19:25:17;67.51;43.68;82.74;;
52872;Laerm;40124;52.198;9.902;2023-02-03T19:27:50;67.14;44.03;79.86;;
52872;Laerm;40124;52.198;9.902;2023-02-03T19:30:15;68.61;44.23;81.25;;
52872;Laerm;40124;52.198;9.902;2023-02-03T19:32:41;65.84;43.49;81.79;;
52872;Laerm;40124;52.198;9.902;2023-02-03T19:35:06;68.93;43.34;84.10;;
52872;Laerm;40124;52.198;9.902;2023-02-03T19:37:32;69.75;43.90;88.32;;
52872;Laerm;40124;52.198;9.902;2023-02-03T19:39:57;69.36;42.29;85.42;;
52872;Laerm;40124;52.198;9.902;2023-02-03T19:42:22;68.13;42.29;82.73;;
52872;Laerm;40124;52.198;9.902;2023-02-03T19:44:47;65.64;42.09;80.50;;
52872;Laerm;40124;52.198;9.902;2023-02-03T19:47:15;67.69;44.07;83.61;;
52872;Laerm;40124;52.198;9.902;2023-02-03T19:49:40;68.53;44.11;82.03;;
52872;Laerm;40124;52.198;9.902;2023-02-03T19:52:05;64.03;41.96;80.13;;
52872;Laerm;40124;52.198;9.902;2023-02-03T19:54:32;65.01;42.03;82.09;;
52872;Laerm;40124;52.198;9.902;2023-02-03T19:56:58;65.18;42.71;80.23;;
52872;Laerm;40124;52.198;9.902;2023-02-03T19:59:23;68.63;44.15;82.06;;
52872;Laerm;40124;52.198;9.902;2023-02-03T20:01:48;68.21;45.97;83.84;;
52872;Laerm;40124;52.198;9.902;2023-02-03T20:04:14;69.93;48.46;84.75;;
52872;Laerm;40124;52.198;9.902;2023-02-03T20:06:42;62.20;43.99;78.82;;
52872;Laerm;40124;52.198;9.902;2023-02-03T20:09:07;68.64;43.72;82.45;;
52872;Laerm;40124;52.198;9.902;2023-02-03T20:11:32;64.61;43.90;79.59;;
52872;Laerm;40124;52.198;9.902;2023-02-03T20:13:57;68.28;43.19;84.97;;
52872;Laerm;40124;52.198;9.902;2023-02-03T20:16:23;63.45;42.35;81.04;;
52872;Laerm;40124;52.198;9.902;2023-02-03T20:18:48;68.36;42.47;84.67;;
52872;Laerm;40124;52.198;9.902;2023-02-03T20:21:13;67.22;42.74;82.11;;
52872;Laerm;40124;52.198;9.902;2023-02-03T20:23:38;66.52;42.22;79.18;;
52872;Laerm;40124;52.198;9.902;2023-02-03T20:26:04;66.02;43.19;84.40;;
52872;Laerm;40124;52.198;9.902;2023-02-03T20:28:29;66.43;42.98;81.35;;
52872;Laerm;40124;52.198;9.902;2023-02-03T20:30:58;66.26;42.29;83.51;;
52872;Laerm;40124;52.198;9.902;2023-02-03T20:33:24;64.91;43.14;80.46;;
52872;Laerm;40124;52.198;9.902;2023-02-03T20:35:49;67.98;43.04;84.12;;
52872;Laerm;40124;52.198;9.902;2023-02-03T20:38:15;61.89;41.82;78.10;;
52872;Laerm;40124;52.198;9.902;2023-02-03T20:40:40;65.08;43.24;82.17;;
52872;Laerm;40124;52.198;9.902;2023-02-03T20:43:14;64.53;42.71;80.77;;
52872;Laerm;40124;52.198;9.902;2023-02-03T20:45:40;64.40;41.68;80.66;;
52872;Laerm;40124;52.198;9.902;2023-02-03T20:48:09;63.95;42.22;78.96;;
52872;Laerm;40124;52.198;9.902;2023-02-03T20:50:34;66.74;42.53;86.63;;
52872;Laerm;40124;52.198;9.902;2023-02-03T20:52:59;65.07;43.14;80.50;;
52872;Laerm;40124;52.198;9.902;2023-02-03T20:55:25;59.76;42.65;79.86;;
52872;Laerm;40124;52.198;9.902;2023-02-03T20:57:50;68.42;43.54;81.49;;
52872;Laerm;40124;52.198;9.902;2023-02-03T21:00:19;68.42;43.99;83.41;;
52872;Laerm;40124;52.198;9.902;2023-02-03T21:02:45;67.67;43.76;84.94;;
52872;Laerm;40124;52.198;9.902;2023-02-03T21:05:41;63.81;42.36;79.96;;
52872;Laerm;40124;52.198;9.902;2023-02-03T21:08:14;65.88;42.76;83.03;;
52872;Laerm;40124;52.198;9.902;2023-02-03T21:10:40;57.80;42.41;77.95;;
52872;Laerm;40124;52.198;9.902;2023-02-03T21:15:50;63.61;41.38;81.21;;
52872;Laerm;40124;52.198;9.902;2023-02-03T21:18:24;71.00;43.09;87.06;;
52872;Laerm;40124;52.198;9.902;2023-02-03T21:20:51;65.27;43.49;80.87;;
52872;Laerm;40124;52.198;9.902;2023-02-03T21:23:16;66.08;42.71;83.61;;